sensor_id;sensor_type;location;lat;lon;timestamp;pressure;altitude;pressure_sealevel;temperature;humidity
19600;BME280;9947;57.722;12.012;2022-10-17T00:02:12;101284.78;;;9.63;100.00
19600;BME280;9947;57.722;12.012;2022-10-17T00:04:40;101291.97;;;9.63;100.00
19600;BME280;9947;57.722;12.012;2022-10-17T00:07:07;101290.19;;;9.63;100.00
19600;BME280;9947;57.722;12.012;2022-10-17T00:09:34;101293.16;;;9.58;100.00
19600;BME280;9947;57.722;12.012;2022-10-17T00:12:00;101298.84;;;9.54;100.00
19600;BME280;9947;57.722;12.012;2022-10-17T00:14:29;101299.13;;;9.49;100.00
19600;BME280;9947;57.722;12.012;2022-10-17T00:16:56;101300.56;;;9.55;100.00
19600;BME280;9947;57.722;12.012;2022-10-17T00:19:23;101302.41;;;9.54;100.00
19600;BME280;9947;57.722;12.012;2022-10-17T00:21:51;101300.47;;;9.56;100.00
19600;BME280;9947;57.722;12.012;2022-10-17T00:24:18;101304.25;;;9.54;100.00
19600;BME280;9947;57.722;12.012;2022-10-17T00:26:45;101317.44;;;9.58;100.00
19600;BME280;9947;57.722;12.012;2022-10-17T00:29:11;101326.13;;;9.64;100.00
19600;BME280;9947;57.722;12.012;2022-10-17T00:31:38;101318.59;;;9.69;100.00
19600;BME280;9947;57.722;12.012;2022-10-17T00:34:05;101320.16;;;9.73;100.00
19600;BME280;9947;57.722;12.012;2022-10-17T00:36:32;101317.16;;;9.77;100.00
19600;BME280;9947;57.722;12.012;2022-10-17T00:39:03;101326.13;;;9.64;100.00
19600;BME280;9947;57.722;12.012;2022-10-17T00:41:32;101339.44;;;9.52;100.00
19600;BME280;9947;57.722;12.012;2022-10-17T00:44:00;101339.81;;;9.61;100.00
19600;BME280;9947;57.722;12.012;2022-10-17T00:46:30;101337.09;;;9.61;100.00
19600;BME280;9947;57.722;12.012;2022-10-17T00:49:00;101331.69;;;9.61;100.00
19600;BME280;9947;57.722;12.012;2022-10-17T00:51:33;101337.19;;;9.59;100.00
19600;BME280;9947;57.722;12.012;2022-10-17T00:54:02;101333.53;;;9.60;100.00
19600;BME280;9947;57.722;12.012;2022-10-17T00:56:32;101345.97;;;9.63;100.00
19600;BME280;9947;57.722;12.012;2022-10-17T00:59:00;101345.59;;;9.54;100.00
19600;BME280;9947;57.722;12.012;2022-10-17T01:01:27;101356.00;;;9.46;100.00
19600;BME280;9947;57.722;12.012;2022-10-17T01:03:54;101358.31;;;9.52;100.00
19600;BME280;9947;57.722;12.012;2022-10-17T01:06:22;101357.34;;;9.53;100.00
19600;BME280;9947;57.722;12.012;2022-10-17T01:08:48;101356.78;;;9.48;100.00
19600;BME280;9947;57.722;12.012;2022-10-17T01:11:25;101364.78;;;9.64;100.00
19600;BME280;9947;57.722;12.012;2022-10-17T01:13:58;101367.56;;;9.48;100.00
19600;BME280;9947;57.722;12.012;2022-10-17T01:16:37;101365.47;;;9.39;100.00
19600;BME280;9947;57.722;12.012;2022-10-17T01:19:21;101371.50;;;9.28;100.00
19600;BME280;9947;57.722;12.012;2022-10-17T01:21:58;101368.78;;;9.28;100.00
19600;BME280;9947;57.722;12.012;2022-10-17T01:24:49;101372.66;;;9.24;100.00
19600;BME280;9947;57.722;12.012;2022-10-17T01:27:53;101371.50;;;9.28;100.00
19600;BME280;9947;57.722;12.012;2022-10-17T01:33:31;101366.63;;;9.49;100.00
19600;BME280;9947;57.722;12.012;2022-10-17T01:36:07;101375.84;;;9.59;100.00
19600;BME280;9947;57.722;12.012;2022-10-17T01:38:38;101372.09;;;9.62;100.00
19600;BME280;9947;57.722;12.012;2022-10-17T01:41:13;101369.50;;;9.61;100.00
19600;BME280;9947;57.722;12.012;2022-10-17T01:43:46;101373.44;;;9.55;100.00
19600;BME280;9947;57.722;12.012;2022-10-17T01:46:19;101376.91;;;9.57;98.85
19600;BME280;9947;57.722;12.012;2022-10-17T01:48:48;101379.31;;;9.62;97.39
19600;BME280;9947;57.722;12.012;2022-10-17T01:51:17;101377.22;;;9.67;98.07
19600;BME280;9947;57.722;12.012;2022-10-17T01:53:49;101382.03;;;9.62;98.58
19600;BME280;9947;57.722;12.012;2022-10-17T01:56:21;101385.50;;;9.49;97.05
19600;BME280;9947;57.722;12.012;2022-10-17T01:58:52;101387.63;;;9.44;96.30
19600;BME280;9947;57.722;12.012;2022-10-17T02:01:23;101390.41;;;9.57;97.53
19600;BME280;9947;57.722;12.012;2022-10-17T02:03:52;101389.75;;;9.53;97.67
19600;BME280;9947;57.722;12.012;2022-10-17T02:06:19;101391.28;;;9.57;97.15
19600;BME280;9947;57.722;12.012;2022-10-17T02:08:48;101395.53;;;9.62;97.60
19600;BME280;9947;57.722;12.012;2022-10-17T02:11:21;101397.19;;;9.64;97.74
19600;BME280;9947;57.722;12.012;2022-10-17T02:13:59;101400.75;;;9.65;96.87
19600;BME280;9947;57.722;12.012;2022-10-17T02:16:34;101409.44;;;9.70;97.16
19600;BME280;9947;57.722;12.012;2022-10-17T02:19:22;101410.41;;;9.69;96.91
19600;BME280;9947;57.722;12.012;2022-10-17T02:22:01;101415.81;;;9.69;96.76
19600;BME280;9947;57.722;12.012;2022-10-17T02:24:38;101430.84;;;9.73;97.49
19600;BME280;9947;57.722;12.012;2022-10-17T02:27:13;101417.03;;;9.77;98.62
19600;BME280;9947;57.722;12.012;2022-10-17T02:29:45;101408.75;;;9.80;100.00
19600;BME280;9947;57.722;12.012;2022-10-17T02:32:18;101415.78;;;9.83;100.00
19600;BME280;9947;57.722;12.012;2022-10-17T02:34:49;101414.16;;;9.80;99.27
19600;BME280;9947;57.722;12.012;2022-10-17T02:37:25;101417.63;;;9.82;100.00
19600;BME280;9947;57.722;12.012;2022-10-17T02:39:54;101419.94;;;9.88;100.00
19600;BME280;9947;57.722;12.012;2022-10-17T02:42:23;101411.56;;;9.93;100.00
19600;BME280;9947;57.722;12.012;2022-10-17T02:44:52;101415.03;;;9.95;100.00
19600;BME280;9947;57.722;12.012;2022-10-17T02:47:25;101411.75;;;9.90;100.00
19600;BME280;9947;57.722;12.012;2022-10-17T02:49:54;101423.88;;;9.83;100.00
19600;BME280;9947;57.722;12.012;2022-10-17T02:52:27;101421.56;;;9.77;100.00
19600;BME280;9947;57.722;12.012;2022-10-17T02:54:59;101425.63;;;9.70;100.00
19600;BME280;9947;57.722;12.012;2022-10-17T02:57:32;101437.19;;;9.72;100.00
19600;BME280;9947;57.722;12.012;2022-10-17T03:00:01;101435.75;;;9.66;100.00
19600;BME280;9947;57.722;12.012;2022-10-17T03:02:39;101435.25;;;9.59;100.00
19600;BME280;9947;57.722;12.012;2022-10-17T03:05:08;101440.84;;;9.56;100.00
19600;BME280;9947;57.722;12.012;2022-10-17T03:07:35;101447.56;;;9.49;100.00
19600;BME280;9947;57.722;12.012;2022-10-17T03:10:02;101449.22;;;9.38;100.00
19600;BME280;9947;57.722;12.012;2022-10-17T03:12:30;101455.03;;;9.30;100.00
19600;BME280;9947;57.722;12.012;2022-10-17T03:14:56;101448.97;;;9.26;98.86
19600;BME280;9947;57.722;12.012;2022-10-17T03:17:26;101453.31;;;9.29;98.60
19600;BME280;9947;57.722;12.012;2022-10-17T03:19:54;101460.72;;;9.25;98.55
19600;BME280;9947;57.722;12.012;2022-10-17T03:22:21;101461.00;;;9.21;98.53
19600;BME280;9947;57.722;12.012;2022-10-17T03:24:48;101463.97;;;9.16;97.20
19600;BME280;9947;57.722;12.012;2022-10-17T03:27:15;101461.97;;;9.20;97.39
19600;BME280;9947;57.722;12.012;2022-10-17T03:29:42;101469.09;;;9.21;96.95
19600;BME280;9947;57.722;12.012;2022-10-17T03:32:09;101469.28;;;9.18;96.21
19600;BME280;9947;57.722;12.012;2022-10-17T03:34:37;101472.56;;;9.23;96.46
19600;BME280;9947;57.722;12.012;2022-10-17T03:37:05;101465.44;;;9.22;96.36
19600;BME280;9947;57.722;12.012;2022-10-17T03:39:32;101471.97;;;9.18;95.21
19600;BME280;9947;57.722;12.012;2022-10-17T03:41:59;101477.47;;;9.16;93.76
19600;BME280;9947;57.722;12.012;2022-10-17T03:44:26;101475.81;;;9.14;93.45
19600;BME280;9947;57.722;12.012;2022-10-17T03:46:52;101480.50;;;9.10;92.42
19600;BME280;9947;57.722;12.012;2022-10-17T03:49:19;101484.44;;;9.05;91.97
19600;BME280;9947;57.722;12.012;2022-10-17T03:51:46;101481.41;;;8.95;91.04
19600;BME280;9947;57.722;12.012;2022-10-17T03:54:14;101467.66;;;8.84;90.13
19600;BME280;9947;57.722;12.012;2022-10-17T03:56:41;101462.25;;;8.84;89.09
19600;BME280;9947;57.722;12.012;2022-10-17T03:59:11;101466.09;;;8.80;88.71
19600;BME280;9947;57.722;12.012;2022-10-17T04:01:38;101465.06;;;8.82;87.81
19600;BME280;9947;57.722;12.012;2022-10-17T04:04:05;101472.19;;;8.83;87.31
19600;BME280;9947;57.722;12.012;2022-10-17T04:06:32;101470.53;;;8.81;87.04
19600;BME280;9947;57.722;12.012;2022-10-17T04:08:59;101470.28;;;8.85;86.94
19600;BME280;9947;57.722;12.012;2022-10-17T04:11:28;101479.59;;;8.80;86.91
19600;BME280;9947;57.722;12.012;2022-10-17T04:13:56;101487.41;;;8.84;86.35
19600;BME280;9947;57.722;12.012;2022-10-17T04:16:24;101487.84;;;8.92;86.71
19600;BME280;9947;57.722;12.012;2022-10-17T04:18:52;101491.78;;;8.87;86.42
19600;BME280;9947;57.722;12.012;2022-10-17T04:21:20;101493.75;;;8.83;85.88
19600;BME280;9947;57.722;12.012;2022-10-17T04:23:46;101499.16;;;8.83;86.04
19600;BME280;9947;57.722;12.012;2022-10-17T04:26:13;101496.22;;;8.88;85.73
19600;BME280;9947;57.722;12.012;2022-10-17T04:28:41;101494.56;;;8.85;85.55
19600;BME280;9947;57.722;12.012;2022-10-17T04:31:11;101495.44;;;8.86;84.94
19600;BME280;9947;57.722;12.012;2022-10-17T04:33:39;101500.00;;;8.84;85.17
19600;BME280;9947;57.722;12.012;2022-10-17T04:36:09;101502.97;;;8.79;84.39
19600;BME280;9947;57.722;12.012;2022-10-17T04:38:36;101499.50;;;8.77;84.45
19600;BME280;9947;57.722;12.012;2022-10-17T04:41:05;101500.91;;;8.69;83.77
19600;BME280;9947;57.722;12.012;2022-10-17T04:43:34;101506.22;;;8.70;83.80
19600;BME280;9947;57.722;12.012;2022-10-17T04:46:04;101505.06;;;8.74;84.13
19600;BME280;9947;57.722;12.012;2022-10-17T04:48:31;101518.63;;;8.73;84.08
19600;BME280;9947;57.722;12.012;2022-10-17T04:50:59;101520.56;;;8.71;83.59
19600;BME280;9947;57.722;12.012;2022-10-17T04:53:27;101527.00;;;8.68;83.77
19600;BME280;9947;57.722;12.012;2022-10-17T04:55:55;101524.38;;;8.67;83.22
19600;BME280;9947;57.722;12.012;2022-10-17T04:58:23;101522.28;;;8.56;82.83
19600;BME280;9947;57.722;12.012;2022-10-17T05:00:50;101529.66;;;8.52;82.87
19600;BME280;9947;57.722;12.012;2022-10-17T05:03:18;101526.28;;;8.49;82.64
19600;BME280;9947;57.722;12.012;2022-10-17T05:05:45;101547.81;;;8.49;82.60
19600;BME280;9947;57.722;12.012;2022-10-17T05:08:12;101551.66;;;8.45;82.22
19600;BME280;9947;57.722;12.012;2022-10-17T05:10:40;101552.25;;;8.50;81.92
19600;BME280;9947;57.722;12.012;2022-10-17T05:13:08;101550.44;;;8.50;81.75
19600;BME280;9947;57.722;12.012;2022-10-17T05:15:35;101545.66;;;8.55;81.17
19600;BME280;9947;57.722;12.012;2022-10-17T05:18:04;101548.03;;;8.61;81.31
19600;BME280;9947;57.722;12.012;2022-10-17T05:20:32;101537.16;;;8.63;81.50
19600;BME280;9947;57.722;12.012;2022-10-17T05:22:59;101532.56;;;8.65;81.23
19600;BME280;9947;57.722;12.012;2022-10-17T05:25:25;101532.28;;;8.70;81.29
19600;BME280;9947;57.722;12.012;2022-10-17T05:27:52;101533.25;;;8.69;81.22
19600;BME280;9947;57.722;12.012;2022-10-17T05:30:19;101535.06;;;8.68;80.73
19600;BME280;9947;57.722;12.012;2022-10-17T05:32:46;101536.03;;;8.67;80.78
19600;BME280;9947;57.722;12.012;2022-10-17T05:35:13;101532.72;;;8.62;80.72
19600;BME280;9947;57.722;12.012;2022-10-17T05:37:41;101531.94;;;8.60;80.89
19600;BME280;9947;57.722;12.012;2022-10-17T05:40:09;101533.78;;;8.59;80.44
19600;BME280;9947;57.722;12.012;2022-10-17T05:42:36;101541.13;;;8.56;80.78
19600;BME280;9947;57.722;12.012;2022-10-17T05:45:04;101536.88;;;8.52;80.88
19600;BME280;9947;57.722;12.012;2022-10-17T05:47:33;101543.31;;;8.49;80.53
19600;BME280;9947;57.722;12.012;2022-10-17T05:50:00;101544.34;;;8.47;80.35
19600;BME280;9947;57.722;12.012;2022-10-17T05:52:27;101556.00;;;8.47;80.31
19600;BME280;9947;57.722;12.012;2022-10-17T05:54:55;101558.88;;;8.44;80.47
19600;BME280;9947;57.722;12.012;2022-10-17T05:57:23;101551.47;;;8.48;80.38
19600;BME280;9947;57.722;12.012;2022-10-17T05:59:50;101546.97;;;8.48;79.95
19600;BME280;9947;57.722;12.012;2022-10-17T06:02:17;101550.44;;;8.50;80.35
19600;BME280;9947;57.722;12.012;2022-10-17T06:04:44;101552.16;;;8.51;79.99
19600;BME280;9947;57.722;12.012;2022-10-17T06:07:13;101556.94;;;8.46;80.20
19600;BME280;9947;57.722;12.012;2022-10-17T06:09:40;101553.13;;;8.50;80.04
19600;BME280;9947;57.722;12.012;2022-10-17T06:12:08;101559.31;;;8.52;80.11
19600;BME280;9947;57.722;12.012;2022-10-17T06:14:35;101561.66;;;8.58;79.95
19600;BME280;9947;57.722;12.012;2022-10-17T06:17:02;101569.59;;;8.61;79.93
19600;BME280;9947;57.722;12.012;2022-10-17T06:19:29;101568.81;;;8.59;80.18
19600;BME280;9947;57.722;12.012;2022-10-17T06:21:57;101570.69;;;8.57;80.19
19600;BME280;9947;57.722;12.012;2022-10-17T06:24:24;101565.25;;;8.59;80.11
19600;BME280;9947;57.722;12.012;2022-10-17T06:26:51;101559.84;;;8.59;79.84
19600;BME280;9947;57.722;12.012;2022-10-17T06:29:19;101574.63;;;8.68;79.76
19600;BME280;9947;57.722;12.012;2022-10-17T06:31:46;101586.28;;;8.68;79.91
19600;BME280;9947;57.722;12.012;2022-10-17T06:34:13;101593.16;;;8.74;79.92
19600;BME280;9947;57.722;12.012;2022-10-17T06:36:39;101588.63;;;8.74;79.78
19600;BME280;9947;57.722;12.012;2022-10-17T06:39:06;101593.69;;;8.80;79.79
19600;BME280;9947;57.722;12.012;2022-10-17T06:41:33;101595.19;;;8.86;79.46
19600;BME280;9947;57.722;12.012;2022-10-17T06:44:00;101593.78;;;8.94;79.75
19600;BME280;9947;57.722;12.012;2022-10-17T06:46:34;101582.66;;;9.01;79.73
19600;BME280;9947;57.722;12.012;2022-10-17T06:49:01;101585.00;;;9.07;79.78
19600;BME280;9947;57.722;12.012;2022-10-17T06:51:28;101583.16;;;9.07;79.98
19600;BME280;9947;57.722;12.012;2022-10-17T06:53:56;101592.75;;;9.13;79.75
19600;BME280;9947;57.722;12.012;2022-10-17T06:56:23;101597.88;;;9.17;79.53
19600;BME280;9947;57.722;12.012;2022-10-17T06:58:53;101598.75;;;9.18;79.60
19600;BME280;9947;57.722;12.012;2022-10-17T07:01:20;101606.34;;;9.11;79.73
19600;BME280;9947;57.722;12.012;2022-10-17T07:03:51;101595.88;;;9.21;80.05
19600;BME280;9947;57.722;12.012;2022-10-17T07:06:19;101596.56;;;9.24;80.20
19600;BME280;9947;57.722;12.012;2022-10-17T07:08:49;101600.31;;;9.22;80.58
19600;BME280;9947;57.722;12.012;2022-10-17T07:11:19;101604.75;;;9.23;80.35
19600;BME280;9947;57.722;12.012;2022-10-17T07:13:46;101605.44;;;9.26;80.18
19600;BME280;9947;57.722;12.012;2022-10-17T07:16:13;101608.06;;;9.28;80.40
19600;BME280;9947;57.722;12.012;2022-10-17T07:18:41;101601.44;;;9.34;80.33
19600;BME280;9947;57.722;12.012;2022-10-17T07:21:09;101614.91;;;9.34;80.17
19600;BME280;9947;57.722;12.012;2022-10-17T07:23:36;101621.09;;;9.36;80.69
19600;BME280;9947;57.722;12.012;2022-10-17T07:26:06;101630.88;;;9.38;80.31
19600;BME280;9947;57.722;12.012;2022-10-17T07:28:34;101633.31;;;9.43;80.72
19600;BME280;9947;57.722;12.012;2022-10-17T07:31:05;101624.84;;;9.49;80.87
19600;BME280;9947;57.722;12.012;2022-10-17T07:33:32;101626.31;;;9.54;81.61
19600;BME280;9947;57.722;12.012;2022-10-17T07:35:59;101633.94;;;9.62;81.98
19600;BME280;9947;57.722;12.012;2022-10-17T07:38:28;101646.56;;;9.77;82.08
19600;BME280;9947;57.722;12.012;2022-10-17T07:40:55;101647.34;;;9.79;82.39
19600;BME280;9947;57.722;12.012;2022-10-17T07:43:22;101653.97;;;9.89;82.85
19600;BME280;9947;57.722;12.012;2022-10-17T07:45:49;101651.94;;;9.93;83.13
19600;BME280;9947;57.722;12.012;2022-10-17T07:48:16;101641.72;;;9.98;83.74
19600;BME280;9947;57.722;12.012;2022-10-17T07:50:43;101645.38;;;9.97;83.79
19600;BME280;9947;57.722;12.012;2022-10-17T07:53:10;101651.09;;;10.07;84.11
19600;BME280;9947;57.722;12.012;2022-10-17T07:55:39;101650.81;;;10.11;84.96
19600;BME280;9947;57.722;12.012;2022-10-17T07:58:07;101653.69;;;10.08;85.35
19600;BME280;9947;57.722;12.012;2022-10-17T08:00:35;101657.00;;;10.13;85.41
19600;BME280;9947;57.722;12.012;2022-10-17T08:03:03;101647.78;;;10.17;86.32
19600;BME280;9947;57.722;12.012;2022-10-17T08:05:31;101643.19;;;10.04;85.95
19600;BME280;9947;57.722;12.012;2022-10-17T08:07:59;101633.94;;;10.08;85.54
19600;BME280;9947;57.722;12.012;2022-10-17T08:10:25;101633.72;;;10.11;85.23
19600;BME280;9947;57.722;12.012;2022-10-17T08:12:56;101635.22;;;10.16;85.74
19600;BME280;9947;57.722;12.012;2022-10-17T08:15:24;101628.59;;;10.22;86.14
19600;BME280;9947;57.722;12.012;2022-10-17T08:17:52;101642.00;;;10.24;86.60
19600;BME280;9947;57.722;12.012;2022-10-17T08:20:20;101636.22;;;10.30;86.35
19600;BME280;9947;57.722;12.012;2022-10-17T08:22:50;101641.25;;;10.36;86.44
19600;BME280;9947;57.722;12.012;2022-10-17T08:25:17;101633.56;;;10.44;86.99
19600;BME280;9947;57.722;12.012;2022-10-17T08:27:44;101641.09;;;10.53;87.03
19600;BME280;9947;57.722;12.012;2022-10-17T08:30:13;101637.03;;;10.60;87.03
19600;BME280;9947;57.722;12.012;2022-10-17T08:32:40;101632.72;;;10.72;87.24
19600;BME280;9947;57.722;12.012;2022-10-17T08:35:07;101636.25;;;10.87;88.37
19600;BME280;9947;57.722;12.012;2022-10-17T08:37:34;101629.97;;;11.00;88.74
19600;BME280;9947;57.722;12.012;2022-10-17T08:40:02;101628.34;;;10.98;90.44
19600;BME280;9947;57.722;12.012;2022-10-17T08:42:41;101630.84;;;11.01;91.27
19600;BME280;9947;57.722;12.012;2022-10-17T08:45:19;101624.31;;;11.18;91.81
19600;BME280;9947;57.722;12.012;2022-10-17T08:47:50;101628.00;;;11.17;92.22
19600;BME280;9947;57.722;12.012;2022-10-17T08:50:24;101621.81;;;11.29;93.00
19600;BME280;9947;57.722;12.012;2022-10-17T08:52:57;101627.78;;;11.34;94.48
19600;BME280;9947;57.722;12.012;2022-10-17T08:55:31;101635.50;;;11.40;95.34
19600;BME280;9947;57.722;12.012;2022-10-17T08:57:59;101637.88;;;11.44;95.52
19600;BME280;9947;57.722;12.012;2022-10-17T09:00:29;101633.53;;;11.42;95.56
19600;BME280;9947;57.722;12.012;2022-10-17T09:03:10;101623.66;;;11.28;94.93
19600;BME280;9947;57.722;12.012;2022-10-17T09:05:48;101632.38;;;11.19;94.87
19600;BME280;9947;57.722;12.012;2022-10-17T09:08:31;101642.59;;;11.28;95.29
19600;BME280;9947;57.722;12.012;2022-10-17T09:11:04;101642.38;;;11.31;95.26
19600;BME280;9947;57.722;12.012;2022-10-17T09:13:51;101636.63;;;11.23;94.71
19600;BME280;9947;57.722;12.012;2022-10-17T09:16:37;101630.13;;;11.26;94.30
19600;BME280;9947;57.722;12.012;2022-10-17T09:19:11;101626.06;;;11.19;93.57
19600;BME280;9947;57.722;12.012;2022-10-17T09:21:46;101620.97;;;11.41;94.42
19600;BME280;9947;57.722;12.012;2022-10-17T09:24:17;101616.28;;;11.30;94.57
19600;BME280;9947;57.722;12.012;2022-10-17T09:26:46;101610.16;;;11.41;95.44
19600;BME280;9947;57.722;12.012;2022-10-17T09:29:20;101604.63;;;11.42;95.67
19600;BME280;9947;57.722;12.012;2022-10-17T09:31:56;101608.38;;;11.54;97.44
19600;BME280;9947;57.722;12.012;2022-10-17T09:34:27;101598.22;;;11.58;97.53
19600;BME280;9947;57.722;12.012;2022-10-17T09:36:56;101600.81;;;11.59;97.91
19600;BME280;9947;57.722;12.012;2022-10-17T09:39:27;101593.13;;;11.66;98.52
19600;BME280;9947;57.722;12.012;2022-10-17T09:41:58;101592.69;;;11.59;99.66
19600;BME280;9947;57.722;12.012;2022-10-17T09:44:29;101594.28;;;11.49;98.08
19600;BME280;9947;57.722;12.012;2022-10-17T09:47:21;101590.59;;;11.50;98.09
19600;BME280;9947;57.722;12.012;2022-10-17T09:49:51;101587.50;;;11.69;99.20
19600;BME280;9947;57.722;12.012;2022-10-17T09:52:24;101579.97;;;11.74;99.44
19600;BME280;9947;57.722;12.012;2022-10-17T09:54:56;101580.78;;;11.62;99.59
19600;BME280;9947;57.722;12.012;2022-10-17T09:57:24;101575.56;;;11.59;97.85
19600;BME280;9947;57.722;12.012;2022-10-17T09:59:59;101565.28;;;11.64;98.42
19600;BME280;9947;57.722;12.012;2022-10-17T10:02:28;101565.84;;;11.69;98.36
19600;BME280;9947;57.722;12.012;2022-10-17T10:04:59;101562.63;;;11.77;98.82
19600;BME280;9947;57.722;12.012;2022-10-17T10:07:28;101559.84;;;11.78;99.39
19600;BME280;9947;57.722;12.012;2022-10-17T10:09:56;101553.53;;;11.78;99.27
19600;BME280;9947;57.722;12.012;2022-10-17T10:12:26;101548.56;;;11.84;99.57
19600;BME280;9947;57.722;12.012;2022-10-17T10:14:53;101543.59;;;11.78;98.63
19600;BME280;9947;57.722;12.012;2022-10-17T10:17:38;101537.22;;;11.65;97.84
19600;BME280;9947;57.722;12.012;2022-10-17T10:20:25;101538.63;;;11.58;96.37
19600;BME280;9947;57.722;12.012;2022-10-17T10:23:07;101541.00;;;11.50;94.35
19600;BME280;9947;57.722;12.012;2022-10-17T10:25:36;101542.97;;;11.60;94.33
19600;BME280;9947;57.722;12.012;2022-10-17T10:28:09;101540.25;;;11.60;93.26
19600;BME280;9947;57.722;12.012;2022-10-17T10:30:36;101542.66;;;11.65;92.93
19600;BME280;9947;57.722;12.012;2022-10-17T10:33:04;101539.50;;;11.58;91.35
19600;BME280;9947;57.722;12.012;2022-10-17T10:35:33;101538.41;;;11.61;90.61
19600;BME280;9947;57.722;12.012;2022-10-17T10:38:07;101536.47;;;11.63;90.70
19600;BME280;9947;57.722;12.012;2022-10-17T10:40:43;101533.00;;;11.61;90.21
19600;BME280;9947;57.722;12.012;2022-10-17T10:43:21;101528.00;;;11.55;90.21
19600;BME280;9947;57.722;12.012;2022-10-17T10:45:48;101520.22;;;11.63;90.76
19600;BME280;9947;57.722;12.012;2022-10-17T10:48:21;101515.66;;;11.63;89.40
19600;BME280;9947;57.722;12.012;2022-10-17T10:50:49;101520.88;;;11.54;86.66
19600;BME280;9947;57.722;12.012;2022-10-17T10:53:41;101512.75;;;11.54;88.22
19600;BME280;9947;57.722;12.012;2022-10-17T10:56:14;101516.97;;;11.58;86.58
19600;BME280;9947;57.722;12.012;2022-10-17T10:58:53;101522.38;;;11.58;87.54
19600;BME280;9947;57.722;12.012;2022-10-17T11:01:28;101515.78;;;11.62;87.97
19600;BME280;9947;57.722;12.012;2022-10-17T11:04:20;101520.53;;;11.58;89.79
19600;BME280;9947;57.722;12.012;2022-10-17T11:06:52;101516.63;;;11.50;90.55
19600;BME280;9947;57.722;12.012;2022-10-17T11:09:28;101524.75;;;11.50;91.29
19600;BME280;9947;57.722;12.012;2022-10-17T11:12:01;101515.78;;;11.62;91.52
19600;BME280;9947;57.722;12.012;2022-10-17T11:14:38;101502.56;;;11.57;92.44
19600;BME280;9947;57.722;12.012;2022-10-17T11:17:18;101491.41;;;11.62;92.37
19600;BME280;9947;57.722;12.012;2022-10-17T11:19:57;101482.84;;;11.68;92.77
19600;BME280;9947;57.722;12.012;2022-10-17T11:22:29;101468.44;;;11.55;93.09
19600;BME280;9947;57.722;12.012;2022-10-17T11:24:59;101474.84;;;11.66;94.38
19600;BME280;9947;57.722;12.012;2022-10-17T11:27:29;101477.44;;;11.55;95.69
19600;BME280;9947;57.722;12.012;2022-10-17T11:29:57;101472.88;;;11.68;96.12
19600;BME280;9947;57.722;12.012;2022-10-17T11:32:27;101462.91;;;11.56;96.09
19600;BME280;9947;57.722;12.012;2022-10-17T11:35:02;101454.69;;;11.45;96.74
19600;BME280;9947;57.722;12.012;2022-10-17T11:37:34;101451.41;;;11.40;96.53
19600;BME280;9947;57.722;12.012;2022-10-17T11:40:06;101451.63;;;11.37;96.09
19600;BME280;9947;57.722;12.012;2022-10-17T11:42:41;101437.31;;;11.22;95.07
19600;BME280;9947;57.722;12.012;2022-10-17T11:45:17;101425.50;;;11.23;93.92
19600;BME280;9947;57.722;12.012;2022-10-17T11:47:46;101428.00;;;11.26;93.68
19600;BME280;9947;57.722;12.012;2022-10-17T11:50:23;101425.56;;;11.09;92.07
19600;BME280;9947;57.722;12.012;2022-10-17T11:52:55;101417.22;;;10.99;90.75
19600;BME280;9947;57.722;12.012;2022-10-17T11:55:25;101406.84;;;11.06;89.21
19600;BME280;9947;57.722;12.012;2022-10-17T11:58:24;101412.56;;;11.01;89.50
19600;BME280;9947;57.722;12.012;2022-10-17T12:01:03;101404.97;;;10.94;89.55
19600;BME280;9947;57.722;12.012;2022-10-17T12:03:45;101408.84;;;10.90;88.53
19600;BME280;9947;57.722;12.012;2022-10-17T12:06:33;101413.66;;;10.99;88.33
19600;BME280;9947;57.722;12.012;2022-10-17T12:09:09;101404.72;;;10.84;86.33
19600;BME280;9947;57.722;12.012;2022-10-17T12:11:49;101397.91;;;10.91;86.00
19600;BME280;9947;57.722;12.012;2022-10-17T12:14:39;101389.00;;;10.76;86.94
19600;BME280;9947;57.722;12.012;2022-10-17T12:17:22;101370.84;;;10.78;83.58
19600;BME280;9947;57.722;12.012;2022-10-17T12:19:53;101352.13;;;10.48;84.80
19600;BME280;9947;57.722;12.012;2022-10-17T12:22:22;101354.31;;;10.56;83.36
19600;BME280;9947;57.722;12.012;2022-10-17T12:24:56;101340.25;;;10.51;83.57
19600;BME280;9947;57.722;12.012;2022-10-17T12:27:40;101337.47;;;10.38;82.51
19600;BME280;9947;57.722;12.012;2022-10-17T12:30:20;101337.19;;;10.43;83.06
19600;BME280;9947;57.722;12.012;2022-10-17T12:33:03;101340.50;;;10.34;82.87
19600;BME280;9947;57.722;12.012;2022-10-17T12:35:34;101339.72;;;10.32;82.71
19600;BME280;9947;57.722;12.012;2022-10-17T12:38:21;101346.31;;;10.28;82.61
19600;BME280;9947;57.722;12.012;2022-10-17T12:40:59;101338.97;;;10.30;80.82
19600;BME280;9947;57.722;12.012;2022-10-17T12:43:36;101340.94;;;10.40;80.41
19600;BME280;9947;57.722;12.012;2022-10-17T12:46:03;101322.72;;;10.44;80.11
19600;BME280;9947;57.722;12.012;2022-10-17T12:48:59;101301.81;;;10.19;78.87
19600;BME280;9947;57.722;12.012;2022-10-17T12:51:26;101294.97;;;10.13;78.57
19600;BME280;9947;57.722;12.012;2022-10-17T12:53:58;101289.97;;;10.07;78.62
19600;BME280;9947;57.722;12.012;2022-10-17T12:56:34;101280.34;;;10.03;78.64
19600;BME280;9947;57.722;12.012;2022-10-17T12:59:07;101267.03;;;10.00;78.88
19600;BME280;9947;57.722;12.012;2022-10-17T13:01:38;101253.75;;;9.97;78.54
19600;BME280;9947;57.722;12.012;2022-10-17T13:04:08;101247.69;;;9.94;78.52
19600;BME280;9947;57.722;12.012;2022-10-17T13:06:42;101220.78;;;9.92;77.96
19600;BME280;9947;57.722;12.012;2022-10-17T13:09:20;101219.06;;;9.91;77.92
19600;BME280;9947;57.722;12.012;2022-10-17T13:11:49;101218.34;;;9.87;78.23
19600;BME280;9947;57.722;12.012;2022-10-17T13:14:19;101207.97;;;9.81;77.74
19600;BME280;9947;57.722;12.012;2022-10-17T13:16:54;101206.25;;;9.80;78.08
19600;BME280;9947;57.722;12.012;2022-10-17T13:19:24;101188.31;;;9.79;78.21